Bei Facebook empfehlenBei Twitter postenGoogle plusPinterest

Das Wetter im Erzgebirge am 24.09.2015

Wetter und Klima am 24.09.2015 Holzhau im Erzgebirge (630m ü.NN)
Letzte gemessene Temperatur und Uhrzeit der Messung23:45:00 Uhr4.70 °C
Temperatur (Maximum / Höchstwert) und Uhrzeit der Messung15:30:00 Uhr16.90 °C
Temperatur (Minimum / Tiefstwert) und Uhrzeit der Messung07:15:001.80 °C
Errechneter Absolutwert der Temperaturschwankungen zwischen Tmin und Tmax des Tages15.10 K
Errechnete Tagesmitteltemperatur7.91146 °C
Gesamt - Niederschlag des Tages (in flüssiger Form)0.00 Liter / m²
Luftdruck (Maximum / Höchstwert) und Zeitpunkt der Messung22:30:00 Uhr1018.30 hPa
Luftdruck (Minimum / Tiefstwert) und Zeitpunkt der Messung00:30:00 Uhr1012.70 hPa
Errechneter Absolutwert der Luftdruckschwankungen des Tages5.60 hPa
Höchste gemessene Windgeschwindigkeit und Uhrzeit der Messung10:45:00 Uhr8.64 km/h
Errechnete Windhäufigkeit in Relation zu den Messwerten des Tages8.33333 %
Niedrigste Windkühle (Windchill) und Zeitpunkt der Messung07:15:00 Uhr1.80 °C
Taupunkt (Maximum / Höchstwert) und Uhrzeit der Messung11:45:00 Uhr13.70 °C
Taupunkt (Minimum / Tiefstwert) und Uhrzeit der Messung07:15:000.90 °C
Anzahl der automatisch eingelesenen Messwerte 96

Detaillierte Wetter- und Klima- Messwerte für den 24.09.2015 in Holzhau im Erzgebirge (630m ü.NN)
ZeitTemperaturLuftdruckRel. LuftfeuchteWindWindrichtungWindchillTaupunktNiederschlag l/m²
23:45:004.70 °C1017.90 hPa90.00 %3.20 °C 
23:30:004.70 °C1018.00 hPa90.00 %3.20 °C 
23:15:004.80 °C1018.00 hPa90.00 %3.30 °C 
23:00:004.90 °C1018.10 hPa90.00 %3.40 °C 
22:45:005.10 °C1018.10 hPa90.00 %3.60 °C 
22:30:005.10 °C1018.30 hPa89.00 %3.40 °C 
22:15:005.20 °C1018.20 hPa89.00 %3.50 °C 
22:00:005.30 °C1018.10 hPa89.00 %3.60 °C 
21:45:005.60 °C1018.00 hPa88.00 %3.80 °C 
21:30:005.80 °C1017.80 hPa88.00 %4.00 °C 
21:15:005.90 °C1017.70 hPa87.00 %3.90 °C 
21:00:006.10 °C1017.70 hPa87.00 %4.10 °C 
20:45:006.30 °C1017.60 hPa86.00 %4.10 °C 
20:30:006.40 °C1017.30 hPa86.00 %4.20 °C 
20:15:006.80 °C1017.20 hPa85.00 %4.50 °C 
20:00:007.20 °C1017.10 hPa84.00 %4.70 °C 
19:45:007.60 °C1017.00 hPa83.00 %4.90 °C 
19:30:008.20 °C1016.80 hPa83.00 %5.50 °C 
19:15:008.90 °C1016.60 hPa81.00 %5.80 °C 
19:00:009.80 °C1016.60 hPa80.00 %6.50 °C 
18:45:0010.90 °C1016.60 hPa79.00 %7.40 °C 
18:30:0011.80 °C1016.60 hPa78.00 %8.10 °C 
18:15:0012.40 °C1016.50 hPa77.00 %8.50 °C 
18:00:0012.80 °C1016.20 hPa75.00 %8.50 °C 
17:45:0013.50 °C1016.30 hPa73.00 %8.80 °C 
17:30:0014.40 °C1016.30 hPa71.00 %9.20 °C 
17:15:0014.90 °C1016.20 hPa71.00 %9.70 °C 
17:00:0015.10 °C1016.20 hPa70.00 %9.70 °C 
16:45:0015.60 °C1016.20 hPa69.00 %2.52 km/hSW15.60 °C9.90 °C 
16:30:0015.90 °C1016.00 hPa69.00 %10.20 °C 
16:15:0016.40 °C1016.10 hPa68.00 %1.80 km/hSW16.40 °C10.50 °C 
16:00:0016.50 °C1016.00 hPa68.00 %10.60 °C 
15:45:0016.60 °C1016.20 hPa67.00 %10.50 °C 
15:30:0016.90 °C1016.10 hPa68.00 %3.60 km/hWSW16.90 °C11.00 °C 
15:15:0016.80 °C1016.20 hPa68.00 %10.90 °C 
15:00:0016.70 °C1016.10 hPa71.00 %11.40 °C 
14:45:0015.80 °C1016.40 hPa70.00 %1.80 km/hWNW15.80 °C10.30 °C 
14:30:0015.80 °C1016.60 hPa70.00 %10.30 °C 
14:15:0015.90 °C1016.60 hPa70.00 %10.40 °C 
14:00:0016.30 °C1016.60 hPa72.00 %2.16 km/hSW16.30 °C11.20 °C 
13:45:0015.80 °C1016.50 hPa74.00 %11.20 °C 
13:30:0015.90 °C1016.40 hPa75.00 %3.96 km/hWSW15.90 °C11.50 °C 
13:15:0016.50 °C1016.60 hPa79.00 %12.80 °C 
13:00:0015.60 °C1016.50 hPa83.00 %12.70 °C 
12:45:0014.80 °C1016.30 hPa86.00 %12.50 °C 
12:30:0014.40 °C1016.70 hPa87.00 %12.30 °C 
12:15:0014.90 °C1016.70 hPa90.00 %13.30 °C 
12:00:0014.80 °C1016.70 hPa92.00 %13.50 °C 
11:45:0014.70 °C1016.70 hPa94.00 %13.70 °C 
11:30:0013.80 °C1016.50 hPa95.00 %13.00 °C 
11:15:0013.30 °C1016.50 hPa95.00 %12.50 °C 
11:00:0012.50 °C1016.50 hPa96.00 %11.90 °C 
10:45:0011.30 °C1016.50 hPa96.00 %8.64 km/hSW10.40 °C10.70 °C 
10:30:0010.30 °C1016.60 hPa95.00 %9.50 °C 
10:15:009.80 °C1016.20 hPa96.00 %9.20 °C 
10:00:008.20 °C1016.30 hPa95.00 %7.40 °C 
09:45:006.90 °C1016.40 hPa95.00 %6.20 °C 
09:30:005.10 °C1016.30 hPa95.00 %4.40 °C 
09:15:004.40 °C1016.50 hPa94.00 %3.50 °C 
09:00:004.40 °C1016.10 hPa94.00 %3.50 °C 
08:45:004.20 °C1016.10 hPa94.00 %3.30 °C 
08:30:003.60 °C1016.10 hPa95.00 %2.90 °C 
08:15:002.50 °C1015.90 hPa94.00 %1.60 °C 
08:00:002.10 °C1015.90 hPa94.00 %1.20 °C 
07:45:002.10 °C1015.60 hPa94.00 %1.20 °C 
07:30:001.90 °C1015.60 hPa94.00 %1.00 °C 
07:15:001.80 °C1015.70 hPa94.00 %0.90 °C 
07:00:001.90 °C1015.30 hPa94.00 %1.00 °C 
06:45:002.20 °C1015.10 hPa94.00 %1.30 °C 
06:30:002.40 °C1014.90 hPa94.00 %1.50 °C 
06:15:002.30 °C1014.80 hPa94.00 %1.40 °C 
06:00:001.90 °C1014.80 hPa94.00 %1.00 °C 
05:45:001.90 °C1014.70 hPa94.00 %1.00 °C 
05:30:001.80 °C1014.40 hPa94.00 %2.52 km/hONO1.80 °C0.90 °C 
05:15:001.90 °C1014.40 hPa94.00 %1.00 °C 
05:00:002.10 °C1014.30 hPa93.00 %1.10 °C 
04:45:002.40 °C1014.30 hPa93.00 %1.40 °C 
04:30:002.20 °C1014.30 hPa93.00 %1.20 °C 
04:15:002.10 °C1014.00 hPa93.00 %1.10 °C 
04:00:002.30 °C1014.00 hPa93.00 %1.30 °C 
03:45:002.30 °C1013.90 hPa93.00 %1.30 °C 
03:30:002.10 °C1014.00 hPa93.00 %1.10 °C 
03:15:002.30 °C1013.90 hPa93.00 %1.30 °C 
03:00:002.40 °C1013.80 hPa93.00 %1.40 °C 
02:45:002.80 °C1013.80 hPa93.00 %1.80 °C 
02:30:002.90 °C1014.00 hPa93.00 %1.90 °C 
02:15:003.10 °C1014.00 hPa93.00 %2.10 °C 
02:00:003.20 °C1013.50 hPa93.00 %2.20 °C 
01:45:003.30 °C1013.60 hPa93.00 %2.30 °C 
01:30:003.60 °C1013.60 hPa93.00 %2.60 °C 
01:15:003.60 °C1013.40 hPa92.00 %2.40 °C 
01:00:003.80 °C1012.90 hPa92.00 %2.60 °C 
00:45:003.80 °C1013.00 hPa92.00 %2.60 °C 
00:30:003.80 °C1012.70 hPa92.00 %2.60 °C 
00:15:003.90 °C1013.00 hPa92.00 %2.70 °C 
00:00:004.20 °C1012.80 hPa92.00 %3.00 °C 

Permanenter Link zu dieser Seite: Wetter im Erzgebirge am 24.09.2015
Performance-Info: Die Erstellung der Seite / Statistik(en) / Tabelle(n) erforderte 5 Datenbankserver-Abfrage(n) und dauerte 105 Millisekunden. (Dieser Messwert ist von der Gesamt-Auslastung des Servers abhängig.)
Erzgebirge - Wetter | Erzgebirge - Wetter (Mobilgeräte) | Komplette Klimadatenbank